Time;durP1;ratioP1;P1;durP2;ratioP2;P2;SDS_P1;SDS_P2;PMS_P1;PMS_P2;Temp;Humidity;BMP_temperature;BMP_pressure;BME280_temperature;BME280_humidity;BME280_pressure;Samples;Min_cycle;Max_cycle;Signal;HPM_P1;HPM_P2
2023/10/04 00:00:32;;;;;;;21.30;19.80;;;;;;;;;;5101434;28;20422;-82
2023/10/04 00:03:00;;;;;;;22.20;20.50;;;;;;;;;;5119076;28;20426;-81
2023/10/04 00:05:28;;;;;;;22.37;20.63;;;;;;;;;;5118939;28;20444;-82
2023/10/04 00:07:56;;;;;;;21.50;20.20;;;;;;;;;;5119755;28;20972;-81
2023/10/04 00:10:24;;;;;;;21.50;20.20;;;;;;;;;;5118361;28;20472;-81
2023/10/04 00:12:52;;;;;;;21.10;19.80;;;;;;;;;;5118494;28;20784;-82
2023/10/04 00:15:22;;;;;;;21.97;19.87;;;;;;;;;;5118511;28;20846;-82
2023/10/04 00:17:52;;;;;;;21.60;20.20;;;;;;;;;;5118045;28;20470;-81
2023/10/04 00:20:19;;;;;;;21.93;20.33;;;;;;;;;;5118695;28;20470;-82
2023/10/04 00:22:47;;;;;;;21.70;20.10;;;;;;;;;;5118586;28;20455;-82
2023/10/04 00:25:17;;;;;;;22.87;21.30;;;;;;;;;;5118052;28;20461;-82
2023/10/04 00:27:45;;;;;;;21.67;20.27;;;;;;;;;;5118600;28;20480;-81
2023/10/04 00:30:16;;;;;;;22.10;20.37;;;;;;;;;;5118570;28;20480;-81
2023/10/04 00:32:44;;;;;;;21.53;19.93;;;;;;;;;;5118632;28;20484;-82
2023/10/04 00:35:11;;;;;;;21.53;20.07;;;;;;;;;;5117582;28;20867;-81
2023/10/04 00:37:39;;;;;;;21.77;20.27;;;;;;;;;;5118663;28;20524;-82
2023/10/04 00:40:11;;;;;;;22.03;20.23;;;;;;;;;;5122852;28;21128;-82
2023/10/04 00:42:40;;;;;;;21.63;20.03;;;;;;;;;;5122644;28;20432;-82
2023/10/04 00:45:13;;;;;;;21.17;19.67;;;;;;;;;;5121066;28;20430;-81
2023/10/04 00:47:42;;;;;;;22.27;20.53;;;;;;;;;;5121706;28;20466;-81
2023/10/04 00:50:15;;;;;;;23.30;21.47;;;;;;;;;;5122498;28;20509;-82
2023/10/04 00:52:46;;;;;;;23.57;21.57;;;;;;;;;;5122329;28;20428;-81
2023/10/04 00:55:14;;;;;;;22.73;21.23;;;;;;;;;;5122001;28;20446;-81
2023/10/04 00:57:41;;;;;;;21.63;20.20;;;;;;;;;;5122223;28;20471;-82
2023/10/04 01:00:11;;;;;;;20.63;19.20;;;;;;;;;;5123253;28;20462;-82
2023/10/04 01:02:39;;;;;;;21.67;20.10;;;;;;;;;;5122976;28;20410;-82
2023/10/04 01:05:07;;;;;;;20.90;19.50;;;;;;;;;;5122516;28;20448;-81
2023/10/04 01:07:35;;;;;;;23.17;21.20;;;;;;;;;;5122048;28;20523;-81
2023/10/04 01:10:05;;;;;;;22.47;20.67;;;;;;;;;;5122248;28;20435;-82
2023/10/04 01:12:32;;;;;;;21.40;19.60;;;;;;;;;;5121591;28;20423;-82
2023/10/04 01:15:26;;;;;;;20.97;19.43;;;;;;;;;;5121331;28;20426;-81
2023/10/04 01:17:50;;;;;;;19.63;18.33;;;;;;;;;;5105092;28;20461;-82
2023/10/04 01:20:22;;;;;;;19.13;17.97;;;;;;;;;;5101539;28;20419;-82
2023/10/04 01:22:50;;;;;;;19.87;18.47;;;;;;;;;;5111042;28;20971;-82
2023/10/04 01:25:19;;;;;;;21.30;19.77;;;;;;;;;;5121187;28;20423;-82
2023/10/04 01:27:46;;;;;;;22.30;20.47;;;;;;;;;;5121974;28;20492;-81
2023/10/04 01:30:14;;;;;;;21.17;19.47;;;;;;;;;;5122528;27;20418;-82
2023/10/04 01:32:41;;;;;;;21.67;19.93;;;;;;;;;;5122622;28;20452;-80
2023/10/04 01:35:11;;;;;;;21.23;19.70;;;;;;;;;;5120867;28;20447;-81
2023/10/04 01:37:40;;;;;;;21.10;19.60;;;;;;;;;;5121507;28;20466;-81
2023/10/04 01:40:12;;;;;;;21.23;19.73;;;;;;;;;;5121810;28;20422;-81
2023/10/04 01:42:40;;;;;;;22.50;20.70;;;;;;;;;;5122327;28;20485;-80
2023/10/04 01:45:09;;;;;;;22.67;20.83;;;;;;;;;;5121109;28;20442;-81
2023/10/04 01:47:38;;;;;;;21.80;20.30;;;;;;;;;;5120528;28;20485;-82
2023/10/04 01:50:06;;;;;;;21.10;19.60;;;;;;;;;;5121035;28;20528;-81
2023/10/04 01:52:33;;;;;;;20.97;19.47;;;;;;;;;;5121900;28;20458;-81
2023/10/04 01:55:05;;;;;;;22.03;20.47;;;;;;;;;;5120359;28;20901;-81
2023/10/04 01:57:33;;;;;;;23.10;20.83;;;;;;;;;;5120579;28;20454;-81
2023/10/04 02:00:01;;;;;;;22.63;21.13;;;;;;;;;;5120350;28;20480;-82
2023/10/04 02:02:28;;;;;;;22.87;20.87;;;;;;;;;;5120585;28;20481;-82
2023/10/04 02:04:55;;;;;;;22.87;21.27;;;;;;;;;;5118998;27;20777;-81
2023/10/04 02:07:23;;;;;;;22.47;20.70;;;;;;;;;;5120251;28;20451;-81
2023/10/04 02:09:51;;;;;;;21.43;20.03;;;;;;;;;;5120190;28;20407;-81
2023/10/04 02:12:21;;;;;;;23.80;21.77;;;;;;;;;;5120052;28;20479;-81
2023/10/04 02:14:53;;;;;;;23.33;21.50;;;;;;;;;;5119119;28;20487;-81
2023/10/04 02:17:22;;;;;;;24.10;20.90;;;;;;;;;;5120023;28;20466;-81
2023/10/04 02:19:49;;;;;;;21.73;20.10;;;;;;;;;;5119543;28;20430;-81
2023/10/04 02:22:18;;;;;;;20.70;19.30;;;;;;;;;;5119844;28;20448;-80
2023/10/04 02:24:45;;;;;;;19.47;18.40;;;;;;;;;;5119277;28;20410;-82
2023/10/04 02:27:16;;;;;;;21.20;19.50;;;;;;;;;;5119356;27;20483;-81
2023/10/04 02:29:44;;;;;;;21.30;19.67;;;;;;;;;;5119787;28;20432;-82
2023/10/04 02:32:13;;;;;;;21.87;20.37;;;;;;;;;;5108553;28;20460;-81
2023/10/04 02:34:41;;;;;;;20.63;18.70;;;;;;;;;;5098406;28;20474;-82
2023/10/04 02:37:09;;;;;;;22.23;20.27;;;;;;;;;;5099234;28;20485;-80
2023/10/04 02:39:37;;;;;;;20.10;18.60;;;;;;;;;;5099344;28;20510;-82
2023/10/04 02:42:09;;;;;;;20.80;19.23;;;;;;;;;;5099169;28;20461;-82
2023/10/04 02:44:36;;;;;;;24.03;20.67;;;;;;;;;;5098403;28;20441;-82
2023/10/04 02:47:06;;;;;;;21.20;19.53;;;;;;;;;;5098709;28;20492;-81
2023/10/04 02:49:37;;;;;;;22.33;20.50;;;;;;;;;;5106837;28;20441;-81
2023/10/04 02:52:05;;;;;;;22.73;20.80;;;;;;;;;;5119999;28;20415;-81
2023/10/04 02:54:32;;;;;;;20.07;18.67;;;;;;;;;;5118419;28;20475;-80
2023/10/04 02:57:00;;;;;;;19.80;18.50;;;;;;;;;;5115979;28;20476;-81
2023/10/04 02:59:27;;;;;;;20.10;18.77;;;;;;;;;;5098128;28;20923;-81
2023/10/04 03:01:54;;;;;;;21.23;19.63;;;;;;;;;;5098505;28;20930;-82
2023/10/04 03:04:22;;;;;;;22.00;20.17;;;;;;;;;;5098164;28;20447;-81
2023/10/04 03:06:51;;;;;;;20.50;18.60;;;;;;;;;;5099221;28;20524;-82
2023/10/04 03:09:18;;;;;;;21.33;19.43;;;;;;;;;;5098398;28;20464;-80
2023/10/04 03:11:46;;;;;;;20.37;19.00;;;;;;;;;;5098429;28;20428;-80
2023/10/04 03:14:13;;;;;;;23.03;19.40;;;;;;;;;;5098052;28;20978;-82
2023/10/04 03:16:42;;;;;;;21.13;19.53;;;;;;;;;;5098015;28;20457;-82
2023/10/04 03:19:10;;;;;;;21.03;19.50;;;;;;;;;;5098106;28;20432;-81
2023/10/04 03:21:44;;;;;;;21.83;20.00;;;;;;;;;;5098017;28;20492;-82
2023/10/04 03:24:14;;;;;;;22.47;20.53;;;;;;;;;;5098526;28;20429;-82
2023/10/04 03:26:41;;;;;;;21.93;20.27;;;;;;;;;;5098490;28;20447;-81
2023/10/04 03:29:11;;;;;;;21.73;19.90;;;;;;;;;;5098086;28;20495;-81
2023/10/04 03:31:39;;;;;;;21.37;19.87;;;;;;;;;;5098685;28;20437;-82
2023/10/04 03:34:07;;;;;;;21.00;19.37;;;;;;;;;;5098061;28;20837;-81
2023/10/04 03:36:39;;;;;;;22.30;20.40;;;;;;;;;;5098045;28;20472;-81
2023/10/04 03:39:09;;;;;;;20.73;19.17;;;;;;;;;;5097485;28;20459;-81
2023/10/04 03:41:42;;;;;;;23.23;21.47;;;;;;;;;;5098205;28;20788;-81
2023/10/04 03:44:09;;;;;;;22.17;20.33;;;;;;;;;;5097842;28;20491;-82
2023/10/04 03:46:37;;;;;;;23.03;21.30;;;;;;;;;;5097234;28;20519;-82
2023/10/04 03:49:04;;;;;;;21.80;20.10;;;;;;;;;;5096719;28;20463;-82
2023/10/04 03:51:33;;;;;;;20.13;18.83;;;;;;;;;;5097248;28;20456;-81
2023/10/04 03:54:05;;;;;;;21.23;19.50;;;;;;;;;;5096910;28;20428;-82
2023/10/04 03:56:33;;;;;;;21.00;19.67;;;;;;;;;;5097283;28;20481;-81
2023/10/04 03:59:03;;;;;;;20.20;18.70;;;;;;;;;;5097557;28;20499;-81
2023/10/04 04:01:31;;;;;;;21.67;19.90;;;;;;;;;;5106137;28;20423;-80
2023/10/04 04:04:03;;;;;;;20.83;19.10;;;;;;;;;;5117584;28;20476;-81
2023/10/04 04:06:30;;;;;;;20.73;19.00;;;;;;;;;;5118442;28;20438;-82
2023/10/04 04:08:59;;;;;;;20.53;19.13;;;;;;;;;;5118088;28;20491;-82
2023/10/04 04:11:27;;;;;;;20.77;19.10;;;;;;;;;;5118508;28;20440;-81
2023/10/04 04:13:56;;;;;;;21.70;19.90;;;;;;;;;;5116410;28;20441;-81
2023/10/04 04:16:24;;;;;;;21.00;19.50;;;;;;;;;;5118525;28;20471;-81
2023/10/04 04:18:54;;;;;;;21.07;19.63;;;;;;;;;;5117428;28;20449;-82
2023/10/04 04:21:21;;;;;;;20.80;18.67;;;;;;;;;;5117256;28;20456;-81
2023/10/04 04:23:48;;;;;;;21.93;20.07;;;;;;;;;;5117537;28;20440;-82
2023/10/04 04:26:16;;;;;;;21.10;19.50;;;;;;;;;;5117628;28;20493;-81
2023/10/04 04:28:43;;;;;;;21.40;19.90;;;;;;;;;;5098555;28;20495;-81
2023/10/04 04:31:14;;;;;;;22.03;20.00;;;;;;;;;;5098589;28;20456;-81
2023/10/04 04:33:43;;;;;;;19.57;18.27;;;;;;;;;;5097832;28;20483;-82
2023/10/04 04:36:17;;;;;;;21.07;19.40;;;;;;;;;;5096560;28;20510;-81
2023/10/04 04:38:47;;;;;;;22.07;20.10;;;;;;;;;;5097448;28;20540;-81
2023/10/04 04:41:20;;;;;;;22.90;21.10;;;;;;;;;;5097061;28;20831;-82
2023/10/04 04:43:49;;;;;;;20.77;19.40;;;;;;;;;;5096823;28;20994;-81
2023/10/04 04:46:17;;;;;;;22.07;20.10;;;;;;;;;;5097086;28;20494;-81
2023/10/04 04:48:46;;;;;;;22.77;20.77;;;;;;;;;;5097186;28;20550;-80
2023/10/04 04:51:14;;;;;;;23.10;21.20;;;;;;;;;;5097870;28;20419;-81
2023/10/04 04:53:42;;;;;;;22.13;20.40;;;;;;;;;;5097886;28;20502;-82
2023/10/04 04:56:12;;;;;;;22.37;20.60;;;;;;;;;;5096937;28;20968;-81
2023/10/04 04:58:39;;;;;;;22.83;20.90;;;;;;;;;;5097650;28;21017;-81
2023/10/04 05:01:09;;;;;;;23.60;21.70;;;;;;;;;;5097534;28;20419;-81
2023/10/04 05:03:36;;;;;;;22.80;20.43;;;;;;;;;;5097076;28;20434;-81
2023/10/04 05:06:05;;;;;;;23.70;21.50;;;;;;;;;;5096463;28;20441;-81
2023/10/04 05:08:33;;;;;;;22.67;21.07;;;;;;;;;;5097410;28;20480;-81
2023/10/04 05:11:02;;;;;;;22.40;20.50;;;;;;;;;;5097875;28;20433;-81
2023/10/04 05:13:30;;;;;;;23.60;21.60;;;;;;;;;;5097887;28;20520;-82
2023/10/04 05:15:57;;;;;;;22.67;20.73;;;;;;;;;;5096544;28;20423;-81
2023/10/04 05:18:25;;;;;;;22.63;20.83;;;;;;;;;;5097863;28;20480;-81
2023/10/04 05:20:54;;;;;;;23.20;21.20;;;;;;;;;;5097307;28;20452;-80
2023/10/04 05:23:23;;;;;;;22.37;20.50;;;;;;;;;;5098099;28;20464;-81
2023/10/04 05:25:50;;;;;;;23.17;21.17;;;;;;;;;;5098082;28;20448;-81
2023/10/04 05:28:20;;;;;;;22.50;20.53;;;;;;;;;;5100543;28;20889;-82
2023/10/04 05:30:47;;;;;;;22.13;20.10;;;;;;;;;;5101860;28;20404;-81
2023/10/04 05:33:15;;;;;;;22.47;20.43;;;;;;;;;;5101132;28;21206;-81
2023/10/04 05:35:44;;;;;;;22.90;21.00;;;;;;;;;;5100002;28;20444;-81
2023/10/04 05:38:14;;;;;;;21.67;20.07;;;;;;;;;;5100212;28;20467;-81
2023/10/04 05:40:43;;;;;;;22.47;20.57;;;;;;;;;;5100953;28;20482;-80
2023/10/04 05:43:11;;;;;;;23.40;21.30;;;;;;;;;;5100585;28;20786;-80
2023/10/04 05:45:42;;;;;;;21.90;20.43;;;;;;;;;;5100262;28;20444;-81
2023/10/04 05:48:09;;;;;;;23.73;21.80;;;;;;;;;;5100388;28;20503;-82
2023/10/04 05:50:36;;;;;;;23.33;21.43;;;;;;;;;;5100663;28;20459;-82
2023/10/04 05:53:06;;;;;;;24.33;22.30;;;;;;;;;;5101118;28;20951;-81
2023/10/04 05:55:34;;;;;;;23.33;21.47;;;;;;;;;;5100266;28;20441;-82
2023/10/04 05:58:03;;;;;;;22.90;21.17;;;;;;;;;;5100205;28;20482;-82
2023/10/04 06:00:33;;;;;;;23.43;21.67;;;;;;;;;;5099508;28;20460;-82
2023/10/04 06:03:01;;;;;;;23.80;21.60;;;;;;;;;;5100144;28;20437;-81
2023/10/04 06:05:29;;;;;;;23.27;21.57;;;;;;;;;;5099679;28;20457;-81
2023/10/04 06:07:56;;;;;;;23.50;21.73;;;;;;;;;;5096887;28;20476;-79
2023/10/04 06:10:24;;;;;;;24.40;22.60;;;;;;;;;;5097459;28;20449;-80
2023/10/04 06:12:54;;;;;;;25.03;22.40;;;;;;;;;;5096667;28;20474;-80
2023/10/04 06:15:24;;;;;;;28.87;21.40;;;;;;;;;;5096514;28;20419;-80
2023/10/04 06:17:52;;;;;;;24.63;22.60;;;;;;;;;;5097550;28;20799;-81
2023/10/04 06:20:28;;;;;;;23.57;21.60;;;;;;;;;;5096847;28;20479;-79
2023/10/04 06:22:56;;;;;;;23.93;21.73;;;;;;;;;;5097027;28;20462;-79
2023/10/04 06:25:24;;;;;;;23.93;21.70;;;;;;;;;;5096218;28;20531;-80
2023/10/04 06:27:51;;;;;;;23.47;21.37;;;;;;;;;;5096699;28;20457;-79
2023/10/04 06:30:22;;;;;;;23.20;21.07;;;;;;;;;;5097280;28;20445;-79
2023/10/04 06:32:50;;;;;;;21.80;19.90;;;;;;;;;;5096599;28;20793;-79
2023/10/04 06:35:18;;;;;;;21.67;20.30;;;;;;;;;;5096385;28;20428;-79
2023/10/04 06:37:45;;;;;;;22.70;20.90;;;;;;;;;;5096009;28;20803;-80
2023/10/04 06:40:16;;;;;;;23.17;21.27;;;;;;;;;;5096339;28;20493;-80
2023/10/04 06:42:44;;;;;;;22.13;20.50;;;;;;;;;;5096538;28;20445;-79
2023/10/04 06:45:13;;;;;;;22.83;21.17;;;;;;;;;;5096153;28;20475;-79
2023/10/04 06:47:41;;;;;;;22.00;20.50;;;;;;;;;;5096356;28;20540;-80
2023/10/04 06:53:13;;;;;;;22.30;20.50;;;;;;;;;;5094571;28;20400;-79
2023/10/04 06:55:40;;;;;;;24.13;22.00;;;;;;;;;;5095554;28;20448;-80
2023/10/04 06:58:10;;;;;;;23.30;21.60;;;;;;;;;;5095614;28;20489;-81
2023/10/04 07:00:38;;;;;;;23.33;21.40;;;;;;;;;;5096144;28;20453;-80
2023/10/04 07:03:05;;;;;;;22.53;20.90;;;;;;;;;;5096045;28;20431;-80
2023/10/04 07:05:35;;;;;;;24.17;21.40;;;;;;;;;;5095937;28;21029;-79
2023/10/04 07:08:04;;;;;;;22.17;20.37;;;;;;;;;;5096246;28;20468;-79
2023/10/04 07:10:32;;;;;;;22.60;20.70;;;;;;;;;;5094571;28;20452;-80
2023/10/04 07:13:00;;;;;;;23.30;20.90;;;;;;;;;;5102001;28;20419;-80
2023/10/04 07:15:28;;;;;;;23.17;21.37;;;;;;;;;;5098338;28;20456;-80
2023/10/04 07:17:55;;;;;;;22.77;20.90;;;;;;;;;;5099983;28;20472;-79
2023/10/04 07:20:24;;;;;;;23.37;21.23;;;;;;;;;;5111017;28;20456;-80
2023/10/04 07:22:58;;;;;;;22.30;20.57;;;;;;;;;;5095144;28;20447;-80
2023/10/04 07:25:25;;;;;;;23.83;21.63;;;;;;;;;;5100530;28;20479;-81
2023/10/04 07:27:54;;;;;;;24.33;22.40;;;;;;;;;;5100503;28;20917;-80
2023/10/04 07:30:22;;;;;;;23.00;21.20;;;;;;;;;;5096197;28;20886;-80
2023/10/04 07:32:49;;;;;;;23.97;21.80;;;;;;;;;;5096680;28;20437;-80
2023/10/04 07:35:19;;;;;;;24.43;21.87;;;;;;;;;;5095205;28;20496;-80
2023/10/04 07:37:46;;;;;;;22.70;21.00;;;;;;;;;;5096391;28;20958;-79
2023/10/04 07:40:14;;;;;;;21.87;20.07;;;;;;;;;;5095534;28;20448;-80
2023/10/04 07:42:45;;;;;;;19.17;17.93;;;;;;;;;;5096155;28;20423;-80
2023/10/04 07:45:14;;;;;;;21.10;19.10;;;;;;;;;;5096038;28;20529;-79
2023/10/04 07:47:41;;;;;;;20.73;19.33;;;;;;;;;;5095231;28;20476;-80
2023/10/04 07:50:10;;;;;;;21.30;19.60;;;;;;;;;;5093717;28;20483;-78
2023/10/04 07:52:38;;;;;;;21.70;19.83;;;;;;;;;;5092734;28;20437;-77
2023/10/04 07:55:06;;;;;;;21.53;19.83;;;;;;;;;;5091708;28;21008;-78
2023/10/04 07:57:35;;;;;;;21.67;20.00;;;;;;;;;;5091911;28;20500;-78
2023/10/04 08:00:04;;;;;;;21.27;20.03;;;;;;;;;;5092164;28;20472;-78
2023/10/04 08:02:32;;;;;;;22.43;20.37;;;;;;;;;;5092457;28;20765;-78
2023/10/04 08:04:59;;;;;;;20.07;18.87;;;;;;;;;;5092031;28;20527;-79
2023/10/04 08:07:26;;;;;;;22.23;20.50;;;;;;;;;;5092690;28;20533;-77
2023/10/04 08:09:53;;;;;;;22.53;20.30;;;;;;;;;;5092483;28;20829;-78
2023/10/04 08:12:20;;;;;;;22.83;21.00;;;;;;;;;;5092412;28;20499;-78
2023/10/04 08:14:48;;;;;;;22.87;21.07;;;;;;;;;;5091428;28;20535;-78
2023/10/04 08:17:16;;;;;;;22.83;20.63;;;;;;;;;;5091946;28;20543;-78
2023/10/04 08:19:45;;;;;;;23.87;21.60;;;;;;;;;;5092375;28;20843;-77
2023/10/04 08:22:12;;;;;;;22.90;21.30;;;;;;;;;;5092538;28;20806;-78
2023/10/04 08:24:40;;;;;;;21.77;19.97;;;;;;;;;;5091512;28;20957;-82
2023/10/04 08:27:09;;;;;;;23.03;20.93;;;;;;;;;;5089096;28;20590;-77
2023/10/04 08:29:37;;;;;;;23.47;21.50;;;;;;;;;;5090344;28;20476;-77
2023/10/04 08:32:04;;;;;;;24.60;22.47;;;;;;;;;;5090394;28;20800;-76
2023/10/04 08:34:31;;;;;;;21.77;20.17;;;;;;;;;;5090362;28;20929;-76
2023/10/04 08:37:00;;;;;;;23.17;21.27;;;;;;;;;;5096099;28;20479;-79
2023/10/04 08:39:27;;;;;;;24.60;22.33;;;;;;;;;;5091856;28;20419;-77
2023/10/04 08:41:54;;;;;;;23.30;21.10;;;;;;;;;;5091927;28;20982;-75
2023/10/04 08:44:21;;;;;;;22.17;20.60;;;;;;;;;;5090653;28;20453;-77
2023/10/04 08:46:52;;;;;;;22.53;20.80;;;;;;;;;;5090619;28;20534;-76
2023/10/04 08:49:22;;;;;;;22.80;20.87;;;;;;;;;;5091743;28;20962;-78
2023/10/04 08:51:52;;;;;;;23.53;21.53;;;;;;;;;;5107505;28;20428;-77
2023/10/04 08:54:23;;;;;;;22.03;20.13;;;;;;;;;;5107329;28;20448;-77
2023/10/04 08:56:54;;;;;;;23.53;21.30;;;;;;;;;;5111796;28;20501;-78
2023/10/04 08:59:22;;;;;;;22.03;20.33;;;;;;;;;;5112686;28;20432;-77
2023/10/04 09:01:50;;;;;;;22.87;21.10;;;;;;;;;;5115018;28;20425;-78
2023/10/04 09:04:18;;;;;;;22.87;20.77;;;;;;;;;;5114898;28;20971;-78
2023/10/04 09:06:45;;;;;;;22.07;20.47;;;;;;;;;;5115504;28;20467;-77
2023/10/04 09:09:15;;;;;;;22.00;19.77;;;;;;;;;;5114059;27;20457;-77
2023/10/04 09:11:44;;;;;;;21.90;20.17;;;;;;;;;;5098619;28;20491;-75
2023/10/04 09:14:11;;;;;;;23.83;21.73;;;;;;;;;;5096321;28;20466;-77
2023/10/04 09:16:39;;;;;;;22.87;21.07;;;;;;;;;;5101215;28;20457;-77
2023/10/04 09:19:08;;;;;;;21.00;19.17;;;;;;;;;;5101507;28;20436;-76
2023/10/04 09:21:35;;;;;;;23.70;21.70;;;;;;;;;;5094067;28;20951;-76
2023/10/04 09:24:08;;;;;;;23.50;21.07;;;;;;;;;;5092033;28;20446;-77
2023/10/04 09:26:36;;;;;;;23.50;21.80;;;;;;;;;;5094364;28;20979;-77
2023/10/04 09:29:06;;;;;;;22.00;20.60;;;;;;;;;;5093218;28;20498;-76
2023/10/04 09:31:46;;;;;;;22.47;20.83;;;;;;;;;;5094180;28;20776;-76
2023/10/04 09:34:14;;;;;;;25.00;21.27;;;;;;;;;;5092509;28;20968;-76
2023/10/04 09:36:42;;;;;;;22.50;20.80;;;;;;;;;;5096124;28;20533;-77
2023/10/04 09:39:11;;;;;;;22.03;20.40;;;;;;;;;;5094130;28;20452;-76
2023/10/04 09:41:42;;;;;;;23.73;21.67;;;;;;;;;;5094264;28;20453;-77
2023/10/04 09:44:27;;;;;;;22.70;20.87;;;;;;;;;;5092755;28;21038;-76
2023/10/04 09:46:59;;;;;;;22.77;20.83;;;;;;;;;;5102343;28;20464;-76
2023/10/04 09:49:29;;;;;;;22.60;20.57;;;;;;;;;;5114128;28;20502;-77
2023/10/04 09:51:56;;;;;;;22.17;20.40;;;;;;;;;;5111149;28;20445;-76
2023/10/04 09:54:23;;;;;;;20.67;19.00;;;;;;;;;;5113394;28;20484;-76
2023/10/04 09:56:53;;;;;;;23.47;21.70;;;;;;;;;;5102942;28;20472;-77
2023/10/04 09:59:21;;;;;;;21.13;19.67;;;;;;;;;;5093932;28;20455;-76
2023/10/04 10:01:54;;;;;;;21.63;20.20;;;;;;;;;;5093645;28;20890;-77
2023/10/04 10:04:25;;;;;;;21.83;19.80;;;;;;;;;;5093458;28;20437;-77
2023/10/04 10:06:55;;;;;;;23.07;21.40;;;;;;;;;;5093313;28;20977;-76
2023/10/04 10:09:25;;;;;;;23.73;21.87;;;;;;;;;;5094124;28;20465;-77
2023/10/04 10:11:53;;;;;;;22.80;21.20;;;;;;;;;;5092937;28;20519;-76
2023/10/04 10:14:21;;;;;;;23.20;21.20;;;;;;;;;;5093130;28;20473;-77
2023/10/04 10:16:54;;;;;;;22.70;20.90;;;;;;;;;;5093545;28;20473;-77
2023/10/04 10:19:28;;;;;;;22.40;20.60;;;;;;;;;;5093362;28;20444;-76
2023/10/04 10:22:08;;;;;;;22.90;21.03;;;;;;;;;;5092589;28;20435;-75
2023/10/04 10:24:36;;;;;;;21.90;20.17;;;;;;;;;;5092670;28;20416;-77
2023/10/04 10:27:03;;;;;;;22.30;20.50;;;;;;;;;;5092812;28;20486;-76
2023/10/04 10:29:32;;;;;;;22.20;20.70;;;;;;;;;;5093092;28;20558;-77
2023/10/04 10:31:59;;;;;;;22.20;20.30;;;;;;;;;;5103208;28;20562;-76
2023/10/04 10:34:28;;;;;;;23.40;21.50;;;;;;;;;;5099598;28;20423;-76
2023/10/04 10:37:09;;;;;;;23.33;21.00;;;;;;;;;;5093025;28;20443;-76
2023/10/04 10:39:44;;;;;;;22.30;20.50;;;;;;;;;;5092913;28;20937;-76
2023/10/04 10:42:11;;;;;;;21.53;19.90;;;;;;;;;;5096281;28;20992;-76
2023/10/04 10:44:39;;;;;;;23.47;21.63;;;;;;;;;;5112589;28;20440;-76
2023/10/04 10:47:08;;;;;;;23.67;21.67;;;;;;;;;;5113321;28;20831;-77
2023/10/04 10:49:40;;;;;;;20.83;19.37;;;;;;;;;;5108726;28;20494;-77
2023/10/04 10:52:09;;;;;;;23.33;21.63;;;;;;;;;;5092211;28;20497;-77
2023/10/04 10:54:36;;;;;;;22.53;20.63;;;;;;;;;;5090828;28;20433;-76
2023/10/04 10:57:05;;;;;;;23.60;21.73;;;;;;;;;;5091111;28;20551;-77
2023/10/04 10:59:32;;;;;;;22.80;20.83;;;;;;;;;;5091549;28;20840;-78
2023/10/04 11:02:00;;;;;;;22.77;21.00;;;;;;;;;;5094164;28;20931;-78
2023/10/04 11:04:27;;;;;;;23.90;22.00;;;;;;;;;;5089769;28;20424;-77
2023/10/04 11:06:55;;;;;;;23.53;21.40;;;;;;;;;;5092145;28;20438;-77
2023/10/04 11:09:22;;;;;;;24.50;22.20;;;;;;;;;;5092630;28;20415;-78
2023/10/04 11:11:49;;;;;;;24.73;22.47;;;;;;;;;;5091852;28;20449;-78
2023/10/04 11:14:17;;;;;;;23.27;21.47;;;;;;;;;;5092385;28;20521;-78
2023/10/04 11:16:44;;;;;;;23.60;21.60;;;;;;;;;;5092624;28;20435;-77
2023/10/04 11:19:12;;;;;;;23.27;21.37;;;;;;;;;;5090687;28;20423;-78
2023/10/04 11:21:39;;;;;;;25.07;22.83;;;;;;;;;;5091358;28;20445;-77
2023/10/04 11:24:10;;;;;;;23.70;21.83;;;;;;;;;;5090786;28;20514;-77
2023/10/04 11:26:40;;;;;;;22.73;21.10;;;;;;;;;;5091091;28;20462;-78
2023/10/04 11:29:07;;;;;;;23.97;21.47;;;;;;;;;;5091642;28;20534;-77
2023/10/04 11:31:34;;;;;;;22.60;20.60;;;;;;;;;;5091489;28;20455;-77
2023/10/04 11:34:02;;;;;;;23.77;21.60;;;;;;;;;;5090207;28;20452;-77
2023/10/04 11:36:29;;;;;;;24.57;22.17;;;;;;;;;;5090440;28;20473;-77
2023/10/04 11:38:56;;;;;;;23.80;21.70;;;;;;;;;;5090607;28;20848;-77
2023/10/04 11:41:29;;;;;;;23.03;21.53;;;;;;;;;;5090594;28;20812;-77
2023/10/04 11:44:02;;;;;;;23.03;21.10;;;;;;;;;;5089906;28;20422;-78
2023/10/04 11:46:29;;;;;;;23.23;21.43;;;;;;;;;;5089900;28;20539;-76
2023/10/04 11:49:11;;;;;;;24.83;22.83;;;;;;;;;;5090406;28;20463;-77
2023/10/04 11:51:39;;;;;;;23.87;22.20;;;;;;;;;;5089994;28;20511;-77
2023/10/04 11:54:08;;;;;;;23.07;21.33;;;;;;;;;;5090017;28;20437;-78
2023/10/04 11:56:41;;;;;;;24.20;22.30;;;;;;;;;;5089558;28;20485;-77
2023/10/04 11:59:09;;;;;;;23.90;22.27;;;;;;;;;;5089900;28;20815;-78
2023/10/04 12:01:44;;;;;;;23.10;21.50;;;;;;;;;;5090035;28;20448;-77
2023/10/04 12:04:11;;;;;;;23.47;21.60;;;;;;;;;;5089795;28;20410;-78
2023/10/04 12:06:39;;;;;;;23.70;22.20;;;;;;;;;;5090284;28;20465;-78
2023/10/04 12:09:07;;;;;;;24.50;22.80;;;;;;;;;;5089591;28;20420;-77
2023/10/04 12:11:35;;;;;;;24.27;22.50;;;;;;;;;;5089941;28;20469;-78
2023/10/04 12:14:05;;;;;;;24.87;22.87;;;;;;;;;;5089901;28;20828;-77
2023/10/04 12:16:33;;;;;;;26.17;23.70;;;;;;;;;;5090186;28;20950;-77
2023/10/04 12:19:00;;;;;;;25.20;23.27;;;;;;;;;;5089974;28;20458;-77
2023/10/04 12:21:28;;;;;;;24.60;22.60;;;;;;;;;;5089251;28;21043;-77
2023/10/04 12:23:55;;;;;;;25.60;23.80;;;;;;;;;;5089787;28;20543;-77
2023/10/04 12:26:22;;;;;;;24.73;22.93;;;;;;;;;;5090489;28;20483;-77
2023/10/04 12:28:49;;;;;;;25.63;23.83;;;;;;;;;;5090678;28;20850;-77
2023/10/04 12:31:18;;;;;;;26.07;24.10;;;;;;;;;;5091142;28;20532;-74
2023/10/04 12:33:46;;;;;;;25.73;23.87;;;;;;;;;;5098407;28;20448;-79
2023/10/04 12:36:13;;;;;;;24.87;22.93;;;;;;;;;;5121116;28;20448;-80
2023/10/04 12:38:41;;;;;;;27.37;25.33;;;;;;;;;;5121700;28;20436;-80
2023/10/04 12:41:08;;;;;;;25.30;23.40;;;;;;;;;;5120815;28;20875;-80
2023/10/04 12:43:36;;;;;;;26.13;24.20;;;;;;;;;;5120731;28;20442;-82
2023/10/04 12:46:03;;;;;;;27.67;25.00;;;;;;;;;;5121191;28;20422;-82
2023/10/04 12:48:31;;;;;;;25.80;23.90;;;;;;;;;;5120959;28;20459;-81
2023/10/04 12:50:58;;;;;;;26.40;24.30;;;;;;;;;;5121184;28;20465;-80
2023/10/04 12:53:26;;;;;;;27.57;25.40;;;;;;;;;;5121753;28;20436;-80
2023/10/04 12:55:54;;;;;;;26.93;25.13;;;;;;;;;;5098977;28;20439;-78
2023/10/04 12:58:22;;;;;;;26.93;24.93;;;;;;;;;;5109771;28;20442;-80
2023/10/04 13:00:50;;;;;;;26.10;24.07;;;;;;;;;;5116254;28;20461;-82
2023/10/04 13:03:17;;;;;;;26.57;24.33;;;;;;;;;;5102103;28;20827;-81
2023/10/04 13:05:47;;;;;;;27.03;25.00;;;;;;;;;;5101726;28;20432;-80
2023/10/04 13:08:20;;;;;;;27.10;25.13;;;;;;;;;;5101162;28;20456;-82
2023/10/04 13:10:48;;;;;;;26.00;24.07;;;;;;;;;;5101742;28;20834;-80
2023/10/04 13:13:15;;;;;;;23.97;22.13;;;;;;;;;;5101633;28;20447;-82
2023/10/04 13:15:42;;;;;;;25.33;23.23;;;;;;;;;;5101572;28;20419;-82
2023/10/04 13:18:11;;;;;;;26.10;24.10;;;;;;;;;;5100856;28;20478;-80
2023/10/04 13:20:39;;;;;;;26.10;23.97;;;;;;;;;;5102223;28;20542;-82
2023/10/04 13:23:08;;;;;;;24.60;22.47;;;;;;;;;;5100455;28;20456;-82
2023/10/04 13:25:36;;;;;;;27.07;24.97;;;;;;;;;;5100540;28;20970;-82
2023/10/04 13:28:05;;;;;;;26.03;23.93;;;;;;;;;;5101504;28;20605;-81
2023/10/04 13:30:33;;;;;;;26.17;24.17;;;;;;;;;;5120269;28;20476;-81
2023/10/04 13:33:00;;;;;;;24.90;23.20;;;;;;;;;;5121291;28;20422;-81
2023/10/04 13:35:28;;;;;;;24.97;23.20;;;;;;;;;;5121266;28;20509;-81
2023/10/04 13:37:56;;;;;;;27.10;24.57;;;;;;;;;;5121421;28;20452;-82
2023/10/04 13:40:24;;;;;;;24.63;22.57;;;;;;;;;;5121647;28;20462;-81
2023/10/04 13:42:51;;;;;;;26.50;24.47;;;;;;;;;;5121761;28;20448;-82
2023/10/04 13:45:18;;;;;;;25.50;23.60;;;;;;;;;;5121605;28;20440;-82
2023/10/04 13:47:46;;;;;;;26.57;24.07;;;;;;;;;;5120714;28;20475;-82
2023/10/04 13:50:13;;;;;;;26.63;24.53;;;;;;;;;;5121951;28;20463;-81
2023/10/04 13:52:41;;;;;;;25.73;23.83;;;;;;;;;;5121770;28;20467;-82
2023/10/04 13:55:09;;;;;;;26.60;24.60;;;;;;;;;;5121182;28;20419;-81
2023/10/04 13:57:39;;;;;;;26.10;24.17;;;;;;;;;;5105096;28;20465;-81
2023/10/04 14:00:15;;;;;;;25.20;23.37;;;;;;;;;;5101194;28;20423;-82
2023/10/04 14:02:43;;;;;;;24.63;22.93;;;;;;;;;;5101011;28;20427;-81
2023/10/04 14:05:18;;;;;;;24.53;22.97;;;;;;;;;;5100136;28;20449;-81
2023/10/04 14:07:48;;;;;;;24.70;22.77;;;;;;;;;;5101274;28;20440;-81
2023/10/04 14:10:16;;;;;;;25.53;23.50;;;;;;;;;;5102057;28;20463;-81
2023/10/04 14:12:44;;;;;;;25.87;23.97;;;;;;;;;;5100244;28;20435;-82
2023/10/04 14:15:13;;;;;;;24.53;22.47;;;;;;;;;;5100174;28;20475;-82
2023/10/04 14:17:41;;;;;;;23.50;21.43;;;;;;;;;;5100649;28;20443;-81
2023/10/04 14:20:13;;;;;;;23.23;21.67;;;;;;;;;;5100718;28;20428;-81
2023/10/04 14:22:40;;;;;;;25.47;23.40;;;;;;;;;;5100430;28;20433;-82
2023/10/04 14:25:08;;;;;;;24.77;23.07;;;;;;;;;;5099862;28;20427;-81
2023/10/04 14:27:36;;;;;;;25.43;23.23;;;;;;;;;;5100541;28;20447;-81